Time;durP1;ratioP1;P1;durP2;ratioP2;P2;SDS_P1;SDS_P2;PMS_P1;PMS_P2;Temp;Humidity;BMP_temperature;BMP_pressure;BME280_temperature;BME280_humidity;BME280_pressure;Samples;Min_cycle;Max_cycle;Signal;HPM_P1;HPM_P2
2022/04/06 00:01:36;;;;;;;19.60;9.87;;;;;;;;;;5023891;28;20195;-63
2022/04/06 00:04:02;;;;;;;15.10;9.10;;;;;;;;;;5000935;28;20187;-62
2022/04/06 00:06:28;;;;;;;23.20;9.90;;;;;;;;;;5018382;28;20602;-63
2022/04/06 00:08:54;;;;;;;16.27;8.70;;;;;;;;;;5018315;28;20290;-63
2022/04/06 00:11:20;;;;;;;19.37;9.23;;;;;;;;;;5018288;28;20569;-63
2022/04/06 00:13:46;;;;;;;21.33;9.33;;;;;;;;;;5018401;28;20172;-64
2022/04/06 00:16:12;;;;;;;20.40;9.43;;;;;;;;;;5017968;28;20530;-63
2022/04/06 00:18:38;;;;;;;14.90;8.47;;;;;;;;;;5000165;28;20215;-61
2022/04/06 00:21:04;;;;;;;17.73;9.20;;;;;;;;;;5017603;28;20598;-62
2022/04/06 00:23:29;;;;;;;23.20;9.73;;;;;;;;;;5017518;28;20183;-63
2022/04/06 00:25:55;;;;;;;22.90;8.60;;;;;;;;;;5017829;28;20188;-62
2022/04/06 00:28:22;;;;;;;26.90;9.13;;;;;;;;;;5017662;28;20259;-62
2022/04/06 00:30:48;;;;;;;17.63;8.63;;;;;;;;;;5000079;28;20235;-62
2022/04/06 00:33:14;;;;;;;20.37;9.27;;;;;;;;;;5017757;28;20187;-62
2022/04/06 00:35:40;;;;;;;20.53;9.23;;;;;;;;;;5000460;28;20183;-62
2022/04/06 00:38:07;;;;;;;13.67;8.50;;;;;;;;;;5018324;28;20215;-62
2022/04/06 00:40:34;;;;;;;18.70;8.17;;;;;;;;;;5018038;28;20266;-62
2022/04/06 00:43:00;;;;;;;19.93;9.23;;;;;;;;;;5000147;28;20565;-63
2022/04/06 00:45:26;;;;;;;19.57;8.87;;;;;;;;;;5016979;28;20190;-62
2022/04/06 00:47:53;;;;;;;15.50;9.07;;;;;;;;;;5017485;28;20180;-63
2022/04/06 00:50:20;;;;;;;20.23;9.00;;;;;;;;;;4999650;28;20570;-63
2022/04/06 00:52:47;;;;;;;15.80;9.13;;;;;;;;;;5017425;28;20206;-63
2022/04/06 00:55:13;;;;;;;18.93;9.03;;;;;;;;;;5018742;28;20187;-63
2022/04/06 00:57:39;;;;;;;19.10;8.77;;;;;;;;;;5017305;28;20183;-62
2022/04/06 01:00:06;;;;;;;17.40;9.07;;;;;;;;;;5017614;28;20191;-62
2022/04/06 01:02:32;;;;;;;20.00;9.83;;;;;;;;;;4999682;28;20241;-63
2022/04/06 01:04:58;;;;;;;17.27;8.73;;;;;;;;;;5017707;28;20258;-62
2022/04/06 01:07:24;;;;;;;20.23;9.37;;;;;;;;;;5017323;28;20204;-62
2022/04/06 01:09:51;;;;;;;18.80;9.50;;;;;;;;;;4999667;28;20653;-62
2022/04/06 01:12:17;;;;;;;17.57;9.40;;;;;;;;;;4999514;28;20225;-62
2022/04/06 01:14:43;;;;;;;17.93;8.23;;;;;;;;;;4999264;28;20636;-62
2022/04/06 01:17:09;;;;;;;15.07;8.90;;;;;;;;;;4999190;28;20183;-62
2022/04/06 01:19:39;;;;;;;20.27;9.80;;;;;;;;;;4999429;28;20190;-62
2022/04/06 01:22:07;;;;;;;18.07;9.20;;;;;;;;;;5017132;28;20216;-62
2022/04/06 01:24:34;;;;;;;19.43;9.83;;;;;;;;;;5017262;28;20184;-61
2022/04/06 01:27:01;;;;;;;16.63;8.57;;;;;;;;;;5016982;28;20211;-62
2022/04/06 01:29:27;;;;;;;22.80;8.67;;;;;;;;;;5016970;28;20265;-62
2022/04/06 01:31:53;;;;;;;17.00;8.00;;;;;;;;;;5016276;28;20206;-63
2022/04/06 01:34:19;;;;;;;18.20;8.30;;;;;;;;;;4998949;28;20270;-62
2022/04/06 01:36:45;;;;;;;15.87;8.43;;;;;;;;;;5016393;28;20176;-62
2022/04/06 01:39:11;;;;;;;22.67;8.60;;;;;;;;;;5016301;28;20267;-62
2022/04/06 01:41:38;;;;;;;18.33;8.43;;;;;;;;;;5016077;28;20239;-63
2022/04/06 01:44:04;;;;;;;18.17;8.17;;;;;;;;;;5016673;28;20201;-62
2022/04/06 01:46:30;;;;;;;13.97;7.40;;;;;;;;;;5016594;28;20565;-62
2022/04/06 01:54:25;;;;;;;14.33;7.40;;;;;;;;;;5016855;28;20243;-63
2022/04/06 01:56:51;;;;;;;18.17;8.00;;;;;;;;;;4999010;28;20654;-61
2022/04/06 01:59:17;;;;;;;17.57;8.07;;;;;;;;;;5016016;28;20203;-61
2022/04/06 02:01:43;;;;;;;16.53;8.80;;;;;;;;;;5016329;28;20199;-62
2022/04/06 02:04:15;;;;;;;13.80;7.47;;;;;;;;;;4998387;28;20267;-62
2022/04/06 02:06:42;;;;;;;14.43;7.97;;;;;;;;;;5015761;28;20305;-62
2022/04/06 02:09:08;;;;;;;14.40;6.53;;;;;;;;;;5015675;28;20231;-63
2022/04/06 02:11:35;;;;;;;12.47;6.83;;;;;;;;;;5015165;28;20612;-62
2022/04/06 02:14:01;;;;;;;13.63;7.33;;;;;;;;;;5015584;28;20175;-62
2022/04/06 02:16:28;;;;;;;11.93;6.60;;;;;;;;;;5015877;28;20226;-62
2022/04/06 02:18:53;;;;;;;13.40;6.53;;;;;;;;;;5015812;28;20179;-62
2022/04/06 02:21:19;;;;;;;21.67;7.00;;;;;;;;;;5015803;28;20727;-62
2022/04/06 02:23:45;;;;;;;13.13;6.73;;;;;;;;;;5015502;28;20194;-62
2022/04/06 02:26:11;;;;;;;19.57;7.03;;;;;;;;;;5015679;28;20184;-62
2022/04/06 02:28:37;;;;;;;16.93;7.70;;;;;;;;;;4998089;28;20588;-61
2022/04/06 02:31:03;;;;;;;10.80;6.23;;;;;;;;;;5015833;28;20195;-62
2022/04/06 02:33:29;;;;;;;14.60;6.27;;;;;;;;;;5016130;28;20258;-62
2022/04/06 02:35:55;;;;;;;12.53;5.73;;;;;;;;;;5015807;28;20202;-62
2022/04/06 02:38:21;;;;;;;11.63;6.33;;;;;;;;;;5015302;28;20262;-62
2022/04/06 02:40:47;;;;;;;23.53;6.63;;;;;;;;;;5015796;28;20200;-62
2022/04/06 02:43:13;;;;;;;17.10;7.23;;;;;;;;;;4998399;28;20176;-62
2022/04/06 02:45:39;;;;;;;11.43;5.53;;;;;;;;;;4998024;28;20207;-63
2022/04/06 02:48:05;;;;;;;12.07;5.60;;;;;;;;;;5015469;28;20176;-62
2022/04/06 02:50:32;;;;;;;14.47;5.80;;;;;;;;;;4997377;28;20313;-62
2022/04/06 02:52:58;;;;;;;17.00;5.57;;;;;;;;;;5015118;28;20176;-62
2022/04/06 02:55:24;;;;;;;7.80;5.00;;;;;;;;;;4997439;28;20184;-62
2022/04/06 02:57:50;;;;;;;15.27;6.73;;;;;;;;;;5015086;28;20188;-63
2022/04/06 03:00:16;;;;;;;10.30;5.47;;;;;;;;;;4997517;28;20207;-62
2022/04/06 03:02:43;;;;;;;9.53;5.70;;;;;;;;;;5015208;28;20191;-63
2022/04/06 03:05:09;;;;;;;16.30;5.40;;;;;;;;;;4997344;28;20188;-61
2022/04/06 03:07:35;;;;;;;16.40;5.47;;;;;;;;;;5015180;28;20270;-62
2022/04/06 03:10:01;;;;;;;8.90;5.03;;;;;;;;;;4997127;28;20258;-62
2022/04/06 03:12:27;;;;;;;17.43;6.33;;;;;;;;;;5018765;28;20179;-62
2022/04/06 03:14:53;;;;;;;13.63;5.53;;;;;;;;;;5003147;28;20275;-62
2022/04/06 03:17:19;;;;;;;14.93;4.93;;;;;;;;;;5022289;28;20207;-62
2022/04/06 03:19:45;;;;;;;13.83;5.97;;;;;;;;;;5018581;28;20180;-61
2022/04/06 03:22:17;;;;;;;13.70;5.37;;;;;;;;;;4996758;28;20295;-62
2022/04/06 03:24:43;;;;;;;9.20;4.70;;;;;;;;;;4996966;28;20172;-62
2022/04/06 03:27:09;;;;;;;11.10;4.70;;;;;;;;;;5014531;28;20187;-62
2022/04/06 03:29:35;;;;;;;9.97;5.53;;;;;;;;;;5014744;28;20203;-62
2022/04/06 03:32:01;;;;;;;14.53;6.03;;;;;;;;;;5014833;28;20254;-63
2022/04/06 03:34:28;;;;;;;13.63;6.10;;;;;;;;;;5015111;28;20285;-62
2022/04/06 03:36:54;;;;;;;12.10;5.50;;;;;;;;;;5014707;28;20176;-63
2022/04/06 03:39:20;;;;;;;12.87;5.43;;;;;;;;;;4996795;28;20188;-62
2022/04/06 03:41:46;;;;;;;10.57;5.80;;;;;;;;;;5014645;28;20215;-62
2022/04/06 03:44:11;;;;;;;9.97;5.70;;;;;;;;;;5014559;28;20184;-62
2022/04/06 03:46:37;;;;;;;11.83;5.50;;;;;;;;;;5014490;28;20176;-62
2022/04/06 03:49:03;;;;;;;12.37;5.37;;;;;;;;;;4996632;28;20210;-61
2022/04/06 03:51:29;;;;;;;13.43;5.50;;;;;;;;;;4997313;28;20235;-63
2022/04/06 03:53:56;;;;;;;15.83;5.60;;;;;;;;;;5014378;28;20201;-63
2022/04/06 03:56:22;;;;;;;11.73;5.30;;;;;;;;;;4997586;28;20736;-62
2022/04/06 03:58:48;;;;;;;9.97;5.50;;;;;;;;;;5015829;28;20184;-62
2022/04/06 04:01:15;;;;;;;10.17;4.73;;;;;;;;;;4998549;28;20626;-62
2022/04/06 04:03:41;;;;;;;10.57;6.27;;;;;;;;;;5016381;28;20219;-63
2022/04/06 04:06:07;;;;;;;11.50;5.57;;;;;;;;;;5016462;28;20180;-62
2022/04/06 04:08:33;;;;;;;13.67;6.53;;;;;;;;;;5016161;28;20565;-62
2022/04/06 04:10:59;;;;;;;11.63;5.10;;;;;;;;;;5014031;28;20278;-62
2022/04/06 04:13:25;;;;;;;12.00;5.83;;;;;;;;;;5013817;28;20234;-61
2022/04/06 04:15:51;;;;;;;13.03;5.70;;;;;;;;;;4996696;28;20176;-61
2022/04/06 04:18:17;;;;;;;7.87;5.00;;;;;;;;;;5015164;28;20489;-61
2022/04/06 04:20:45;;;;;;;14.00;5.33;;;;;;;;;;5014169;28;20294;-62
2022/04/06 04:23:12;;;;;;;11.37;5.20;;;;;;;;;;5014007;28;20176;-61
2022/04/06 04:25:38;;;;;;;12.27;5.40;;;;;;;;;;5014403;28;20207;-62
2022/04/06 04:28:05;;;;;;;10.77;4.77;;;;;;;;;;4996675;28;20637;-60
2022/04/06 04:30:31;;;;;;;8.83;4.60;;;;;;;;;;5015922;28;20212;-63
2022/04/06 04:32:57;;;;;;;10.13;5.10;;;;;;;;;;5022001;28;20657;-62
2022/04/06 04:35:23;;;;;;;10.13;4.87;;;;;;;;;;5024000;28;20538;-62
2022/04/06 04:37:49;;;;;;;11.10;4.77;;;;;;;;;;5024481;28;20675;-62
2022/04/06 04:40:16;;;;;;;10.63;4.63;;;;;;;;;;5023657;28;20199;-61
2022/04/06 04:42:42;;;;;;;8.03;4.73;;;;;;;;;;5005725;28;20534;-62
2022/04/06 04:45:10;;;;;;;10.00;5.03;;;;;;;;;;5000375;28;20234;-62
2022/04/06 04:47:36;;;;;;;9.87;4.67;;;;;;;;;;5018602;28;20191;-62
2022/04/06 04:50:02;;;;;;;13.53;5.60;;;;;;;;;;5018044;28;21504;-62
2022/04/06 04:52:29;;;;;;;7.03;3.90;;;;;;;;;;5018282;28;20556;-62
2022/04/06 04:54:54;;;;;;;8.93;4.97;;;;;;;;;;5000476;28;20187;-62
2022/04/06 04:57:20;;;;;;;14.13;4.50;;;;;;;;;;5017977;28;20184;-62
2022/04/06 04:59:46;;;;;;;14.33;4.60;;;;;;;;;;5000221;28;20183;-61
2022/04/06 05:02:12;;;;;;;12.97;4.60;;;;;;;;;;4999509;28;20318;-62
2022/04/06 05:04:38;;;;;;;8.20;3.80;;;;;;;;;;5000035;28;20219;-62
2022/04/06 05:07:05;;;;;;;11.53;5.20;;;;;;;;;;5018994;28;20743;-61
2022/04/06 05:09:30;;;;;;;12.57;4.30;;;;;;;;;;5018296;28;20203;-62
2022/04/06 05:11:56;;;;;;;9.80;4.50;;;;;;;;;;5019116;28;20569;-62
2022/04/06 05:14:23;;;;;;;9.77;4.07;;;;;;;;;;5018425;28;20237;-63
2022/04/06 05:16:49;;;;;;;13.17;4.33;;;;;;;;;;5019086;28;20191;-62
2022/04/06 05:19:15;;;;;;;8.20;4.30;;;;;;;;;;5017962;28;20180;-63
2022/04/06 05:21:41;;;;;;;8.40;4.47;;;;;;;;;;5018476;28;20219;-62
2022/04/06 05:24:07;;;;;;;15.63;5.20;;;;;;;;;;5018530;28;20241;-63
2022/04/06 05:26:33;;;;;;;12.97;5.00;;;;;;;;;;5018457;28;20191;-63
2022/04/06 05:28:59;;;;;;;13.60;6.00;;;;;;;;;;5017641;28;20555;-62
2022/04/06 05:31:25;;;;;;;12.53;4.60;;;;;;;;;;4999632;28;20204;-62
2022/04/06 05:33:51;;;;;;;10.60;4.93;;;;;;;;;;5001759;28;20187;-63
2022/04/06 05:36:17;;;;;;;14.60;5.33;;;;;;;;;;5004414;28;20175;-63
2022/04/06 05:38:43;;;;;;;11.93;4.80;;;;;;;;;;5022293;28;20187;-61
2022/04/06 05:41:09;;;;;;;10.97;5.13;;;;;;;;;;5022428;28;20204;-62
2022/04/06 05:43:35;;;;;;;8.77;4.67;;;;;;;;;;5022236;28;20179;-62
2022/04/06 05:46:01;;;;;;;9.93;4.93;;;;;;;;;;4998540;28;20184;-63
2022/04/06 05:48:27;;;;;;;11.80;3.97;;;;;;;;;;5016507;28;20268;-63
2022/04/06 05:50:53;;;;;;;13.00;5.90;;;;;;;;;;5015920;28;20207;-62
2022/04/06 05:53:19;;;;;;;15.33;7.57;;;;;;;;;;5042118;23;20227;-65
2022/04/06 05:55:47;;;;;;;16.37;7.70;;;;;;;;;;5035454;28;20644;-66
2022/04/06 05:58:13;;;;;;;11.63;5.93;;;;;;;;;;5034702;28;20179;-66
2022/04/06 06:00:39;;;;;;;8.70;5.07;;;;;;;;;;5036518;28;20270;-66
2022/04/06 06:03:05;;;;;;;14.80;7.77;;;;;;;;;;5034970;28;20638;-66
2022/04/06 06:05:31;;;;;;;14.37;6.20;;;;;;;;;;5044284;28;20183;-66
2022/04/06 06:07:57;;;;;;;14.70;6.90;;;;;;;;;;5053644;28;20171;-66
2022/04/06 06:10:23;;;;;;;13.33;8.40;;;;;;;;;;5053628;28;20270;-66
2022/04/06 06:12:49;;;;;;;25.23;13.70;;;;;;;;;;5054357;28;20197;-66
2022/04/06 06:15:15;;;;;;;12.17;5.20;;;;;;;;;;5041949;28;20186;-67
2022/04/06 06:17:41;;;;;;;18.60;10.37;;;;;;;;;;5035935;28;20237;-66
2022/04/06 06:20:08;;;;;;;12.97;6.53;;;;;;;;;;5034153;28;20635;-66
2022/04/06 06:22:34;;;;;;;11.50;6.13;;;;;;;;;;5034734;28;20580;-66
2022/04/06 06:25:00;;;;;;;12.60;4.97;;;;;;;;;;5034322;28;20183;-66
2022/04/06 06:27:27;;;;;;;6.60;3.93;;;;;;;;;;5036304;28;20181;-66
2022/04/06 06:29:53;;;;;;;8.53;3.57;;;;;;;;;;5035727;28;20203;-66
2022/04/06 06:32:19;;;;;;;9.17;4.17;;;;;;;;;;5035855;28;20199;-65
2022/04/06 06:34:45;;;;;;;10.50;4.10;;;;;;;;;;5036350;28;20186;-67
2022/04/06 06:37:11;;;;;;;26.40;12.33;;;;;;;;;;5036682;28;20189;-66
2022/04/06 06:39:37;;;;;;;23.70;11.07;;;;;;;;;;5041616;28;20171;-66
2022/04/06 06:42:06;;;;;;;14.00;8.07;;;;;;;;;;5046608;28;20183;-66
2022/04/06 06:44:32;;;;;;;20.00;9.30;;;;;;;;;;5047082;28;20563;-66
2022/04/06 06:46:58;;;;;;;11.07;4.60;;;;;;;;;;5048770;28;20564;-66
2022/04/06 06:49:24;;;;;;;14.13;8.73;;;;;;;;;;5048893;28;20306;-66
2022/04/06 06:51:50;;;;;;;9.13;5.93;;;;;;;;;;5048561;28;20654;-66
2022/04/06 06:54:16;;;;;;;9.37;6.57;;;;;;;;;;5043559;28;20215;-66
2022/04/06 06:56:42;;;;;;;12.43;6.27;;;;;;;;;;5033780;28;20175;-66
2022/04/06 06:59:08;;;;;;;8.00;4.67;;;;;;;;;;5034249;28;20193;-66
2022/04/06 07:01:34;;;;;;;10.50;5.07;;;;;;;;;;5035067;28;20186;-66
2022/04/06 07:04:00;;;;;;;7.90;4.47;;;;;;;;;;5034807;28;20206;-66
2022/04/06 07:06:26;;;;;;;10.87;5.40;;;;;;;;;;5034620;28;20209;-67
2022/04/06 07:08:53;;;;;;;9.70;4.63;;;;;;;;;;5034789;28;20586;-66
2022/04/06 07:11:19;;;;;;;10.10;4.87;;;;;;;;;;5033268;28;20630;-67
2022/04/06 07:13:45;;;;;;;9.77;5.40;;;;;;;;;;5034698;28;20195;-66
2022/04/06 07:16:14;;;;;;;7.87;5.13;;;;;;;;;;5034509;28;20258;-66
2022/04/06 07:18:41;;;;;;;11.20;6.07;;;;;;;;;;5034659;28;20233;-66
2022/04/06 07:21:07;;;;;;;11.93;5.50;;;;;;;;;;5033392;28;20270;-67
2022/04/06 07:23:33;;;;;;;11.53;6.87;;;;;;;;;;5033358;28;20237;-66
2022/04/06 07:25:59;;;;;;;12.70;6.93;;;;;;;;;;5034015;28;20171;-67
2022/04/06 07:28:25;;;;;;;8.90;5.10;;;;;;;;;;5034481;28;20180;-66
2022/04/06 07:30:51;;;;;;;14.43;7.77;;;;;;;;;;5034492;28;20549;-66
2022/04/06 07:33:17;;;;;;;12.10;5.50;;;;;;;;;;5034776;28;20240;-66
2022/04/06 07:35:43;;;;;;;12.23;6.23;;;;;;;;;;5034020;28;20182;-67
2022/04/06 07:38:12;;;;;;;7.93;4.40;;;;;;;;;;5033157;28;20186;-66
2022/04/06 07:40:38;;;;;;;9.13;6.37;;;;;;;;;;5034166;28;20266;-66
2022/04/06 07:43:04;;;;;;;8.07;4.53;;;;;;;;;;5034819;28;20235;-66
2022/04/06 07:45:30;;;;;;;8.03;4.63;;;;;;;;;;5034228;28;20286;-66
2022/04/06 07:47:56;;;;;;;12.33;5.47;;;;;;;;;;5034323;28;20175;-66
2022/04/06 07:50:22;;;;;;;14.17;4.83;;;;;;;;;;5034071;28;20202;-67
2022/04/06 07:52:48;;;;;;;11.80;5.03;;;;;;;;;;5039674;28;20726;-67
2022/04/06 07:55:14;;;;;;;7.73;3.90;;;;;;;;;;5054259;28;20633;-67
2022/04/06 07:57:40;;;;;;;11.70;4.53;;;;;;;;;;5036178;28;20214;-66
2022/04/06 08:00:07;;;;;;;13.17;4.73;;;;;;;;;;5053885;28;20639;-65
2022/04/06 08:02:33;;;;;;;9.60;4.33;;;;;;;;;;5035983;28;20295;-64
2022/04/06 08:04:59;;;;;;;5.43;3.40;;;;;;;;;;5036203;28;20208;-66
2022/04/06 08:07:25;;;;;;;5.87;4.13;;;;;;;;;;5035780;28;20182;-66
2022/04/06 08:09:51;;;;;;;10.30;5.03;;;;;;;;;;5056084;28;20206;-66
2022/04/06 08:12:17;;;;;;;6.80;3.57;;;;;;;;;;5057577;28;20225;-67
2022/04/06 08:14:43;;;;;;;9.70;3.93;;;;;;;;;;5057677;28;20175;-66
2022/04/06 08:17:09;;;;;;;6.57;3.83;;;;;;;;;;5058409;28;20170;-66
2022/04/06 08:19:35;;;;;;;11.13;4.17;;;;;;;;;;5057318;28;20178;-66
2022/04/06 08:22:01;;;;;;;11.77;5.90;;;;;;;;;;5057887;28;20186;-66
2022/04/06 08:24:27;;;;;;;8.20;4.30;;;;;;;;;;5057419;28;20215;-66
2022/04/06 08:26:53;;;;;;;5.93;3.97;;;;;;;;;;5057705;28;20644;-66
2022/04/06 08:29:19;;;;;;;7.60;4.43;;;;;;;;;;5057184;28;20206;-67
2022/04/06 08:31:45;;;;;;;10.97;4.37;;;;;;;;;;5057993;28;20591;-66
2022/04/06 08:34:11;;;;;;;8.33;4.17;;;;;;;;;;5057060;28;20285;-66
2022/04/06 08:36:39;;;;;;;11.73;5.10;;;;;;;;;;5057533;28;20194;-66
2022/04/06 08:39:06;;;;;;;5.93;4.30;;;;;;;;;;5058144;28;20174;-66
2022/04/06 08:41:32;;;;;;;8.07;5.17;;;;;;;;;;5058212;28;20179;-67
2022/04/06 08:43:58;;;;;;;16.90;11.23;;;;;;;;;;5043839;28;20209;-66
2022/04/06 08:46:25;;;;;;;25.20;14.00;;;;;;;;;;5063562;28;20257;-67
2022/04/06 08:48:52;;;;;;;13.40;7.50;;;;;;;;;;5045102;28;20206;-66
2022/04/06 08:51:18;;;;;;;11.47;5.87;;;;;;;;;;5041494;28;20630;-67
2022/04/06 08:53:45;;;;;;;9.73;4.43;;;;;;;;;;5041976;28;20226;-66
2022/04/06 08:56:14;;;;;;;6.73;4.97;;;;;;;;;;5063335;28;20182;-67
2022/04/06 08:58:41;;;;;;;7.73;4.40;;;;;;;;;;5060024;28;20557;-66
2022/04/06 09:01:08;;;;;;;5.50;2.83;;;;;;;;;;5058448;28;20183;-67
2022/04/06 09:03:35;;;;;;;16.10;7.77;;;;;;;;;;5058089;28;20693;-67
2022/04/06 09:06:02;;;;;;;4.20;2.40;;;;;;;;;;5058372;28;20627;-67
2022/04/06 09:08:39;;;;;;;8.27;2.90;;;;;;;;;;5039185;28;20179;-66
2022/04/06 09:11:10;;;;;;;4.93;2.70;;;;;;;;;;5056981;28;20258;-67
2022/04/06 09:13:36;;;;;;;5.53;2.47;;;;;;;;;;5058155;28;20198;-67
2022/04/06 09:16:04;;;;;;;6.23;2.60;;;;;;;;;;5040402;28;20254;-67
2022/04/06 09:18:38;;;;;;;5.40;2.67;;;;;;;;;;5040065;28;20599;-67
2022/04/06 09:21:04;;;;;;;6.53;3.60;;;;;;;;;;5039104;28;20221;-67
2022/04/06 09:23:31;;;;;;;4.27;3.10;;;;;;;;;;5057149;28;20203;-66
2022/04/06 09:26:03;;;;;;;7.03;2.70;;;;;;;;;;5056789;28;20189;-66
2022/04/06 09:28:29;;;;;;;7.00;2.70;;;;;;;;;;5056419;28;20254;-66
2022/04/06 09:30:55;;;;;;;4.73;2.60;;;;;;;;;;5056648;28;20212;-64
2022/04/06 09:33:22;;;;;;;6.67;2.70;;;;;;;;;;5056519;28;20200;-66
2022/04/06 09:35:48;;;;;;;6.47;3.13;;;;;;;;;;5056516;28;20301;-67
2022/04/06 09:38:25;;;;;;;6.07;2.97;;;;;;;;;;5056857;28;20171;-66
2022/04/06 09:41:01;;;;;;;7.23;3.37;;;;;;;;;;5038463;28;20196;-67
2022/04/06 09:43:28;;;;;;;8.27;3.30;;;;;;;;;;5038157;28;20741;-68
2022/04/06 09:48:56;;;;;;;7.03;2.60;;;;;;;;;;5056636;28;20185;-66
2022/04/06 09:51:22;;;;;;;7.00;3.50;;;;;;;;;;5055854;28;20174;-66
2022/04/06 09:53:52;;;;;;;6.70;3.23;;;;;;;;;;5055921;28;20213;-66
2022/04/06 09:56:18;;;;;;;9.57;4.27;;;;;;;;;;5055623;28;20177;-66
2022/04/06 09:58:44;;;;;;;9.00;3.97;;;;;;;;;;5038140;28;20179;-66
2022/04/06 10:01:10;;;;;;;3.93;2.50;;;;;;;;;;5055997;28;20185;-67
2022/04/06 10:03:41;;;;;;;6.40;3.50;;;;;;;;;;5037934;28;20268;-64
2022/04/06 10:06:07;;;;;;;8.47;3.27;;;;;;;;;;5056184;28;20245;-64
2022/04/06 10:08:33;;;;;;;10.27;3.87;;;;;;;;;;5038437;28;20277;-67
2022/04/06 10:11:00;;;;;;;7.10;2.80;;;;;;;;;;5056668;28;20204;-67
2022/04/06 10:13:26;;;;;;;6.13;3.23;;;;;;;;;;5056555;28;20194;-67
2022/04/06 10:15:52;;;;;;;6.60;3.10;;;;;;;;;;5056010;28;20186;-66
2022/04/06 10:18:19;;;;;;;5.27;2.90;;;;;;;;;;5055543;28;20185;-66
2022/04/06 10:20:48;;;;;;;6.27;2.70;;;;;;;;;;5057014;28;20189;-66
2022/04/06 10:23:17;;;;;;;5.50;3.03;;;;;;;;;;5038414;28;20209;-66
2022/04/06 10:25:49;;;;;;;6.23;2.50;;;;;;;;;;5038166;28;20269;-66
2022/04/06 10:28:15;;;;;;;4.73;2.40;;;;;;;;;;5056433;28;20182;-66
2022/04/06 10:30:41;;;;;;;4.20;2.30;;;;;;;;;;5056391;28;20225;-66
2022/04/06 10:33:19;;;;;;;3.33;2.40;;;;;;;;;;5056179;28;20670;-66
2022/04/06 10:35:45;;;;;;;6.67;2.33;;;;;;;;;;5055918;28;20205;-66
2022/04/06 10:38:14;;;;;;;10.50;3.03;;;;;;;;;;5056235;28;20650;-67
2022/04/06 10:40:43;;;;;;;7.60;3.00;;;;;;;;;;5056134;28;20244;-66
2022/04/06 10:43:28;;;;;;;7.60;3.00;;;;;;;;;;5056456;28;20194;-67
2022/04/06 10:45:57;;;;;;;5.93;2.60;;;;;;;;;;5037529;28;20708;-66
2022/04/06 10:48:23;;;;;;;6.83;2.90;;;;;;;;;;5037442;28;20186;-66
2022/04/06 10:50:49;;;;;;;6.73;2.30;;;;;;;;;;5055397;28;20199;-66
2022/04/06 10:53:19;;;;;;;4.80;2.87;;;;;;;;;;5037778;28;20210;-66
2022/04/06 10:56:16;;;;;;;8.77;2.97;;;;;;;;;;5056012;28;20178;-67
2022/04/06 10:58:54;;;;;;;3.57;2.40;;;;;;;;;;5054991;28;20191;-66
2022/04/06 11:01:26;;;;;;;5.03;2.97;;;;;;;;;;5055360;28;20273;-66
2022/04/06 11:04:16;;;;;;;4.87;2.60;;;;;;;;;;5036824;28;20328;-66
2022/04/06 11:06:45;;;;;;;5.13;1.90;;;;;;;;;;5057072;28;20158;-66
2022/04/06 11:12:12;;;;;;;6.90;3.23;;;;;;;;;;5055700;28;20173;-66
2022/04/06 11:14:38;;;;;;;4.23;2.77;;;;;;;;;;5055788;28;20201;-67
2022/04/06 11:17:24;;;;;;;6.07;3.83;;;;;;;;;;5056268;28;20174;-64
2022/04/06 11:19:51;;;;;;;5.87;3.40;;;;;;;;;;5056205;28;20178;-67
2022/04/06 11:22:17;;;;;;;5.47;3.03;;;;;;;;;;5055598;28;20584;-66
2022/04/06 11:24:43;;;;;;;5.80;2.80;;;;;;;;;;5036925;28;20260;-64
2022/04/06 11:27:09;;;;;;;8.10;3.10;;;;;;;;;;5055282;28;20553;-66
2022/04/06 11:29:36;;;;;;;7.13;3.30;;;;;;;;;;5037700;28;20201;-67
2022/04/06 11:32:06;;;;;;;6.70;2.80;;;;;;;;;;5054818;28;20171;-66
2022/04/06 11:34:34;;;;;;;5.47;2.33;;;;;;;;;;5036841;28;20274;-66
2022/04/06 11:37:00;;;;;;;6.73;3.53;;;;;;;;;;5055067;28;20174;-66
2022/04/06 11:39:28;;;;;;;7.77;3.47;;;;;;;;;;5054784;28;20182;-66
2022/04/06 11:41:54;;;;;;;7.87;3.10;;;;;;;;;;5037250;28;20183;-67
2022/04/06 11:44:23;;;;;;;5.97;2.70;;;;;;;;;;5056361;28;20202;-66
2022/04/06 11:46:49;;;;;;;7.30;3.73;;;;;;;;;;5058767;28;20178;-66
2022/04/06 11:49:20;;;;;;;5.07;2.80;;;;;;;;;;5042618;28;20213;-66
2022/04/06 11:51:47;;;;;;;7.57;3.20;;;;;;;;;;5041622;28;20182;-66
2022/04/06 11:54:13;;;;;;;5.90;2.40;;;;;;;;;;5061448;28;20217;-66
2022/04/06 11:56:40;;;;;;;5.97;3.40;;;;;;;;;;5059502;28;20175;-66
2022/04/06 11:59:09;;;;;;;2.07;1.80;;;;;;;;;;5058959;28;20189;-67
2022/04/06 12:01:42;;;;;;;6.93;2.93;;;;;;;;;;5041189;28;20182;-66
2022/04/06 12:04:15;;;;;;;5.47;2.60;;;;;;;;;;5059683;28;20205;-67
2022/04/06 12:06:41;;;;;;;4.63;3.03;;;;;;;;;;5068185;28;20190;-67
2022/04/06 12:09:07;;;;;;;6.70;2.87;;;;;;;;;;5070077;28;20202;-67
2022/04/06 12:11:36;;;;;;;5.57;2.80;;;;;;;;;;5052127;28;20185;-66
2022/04/06 12:14:03;;;;;;;8.63;2.90;;;;;;;;;;5047619;28;20210;-66
2022/04/06 12:16:30;;;;;;;4.53;2.80;;;;;;;;;;5058265;28;20177;-66
2022/04/06 12:18:56;;;;;;;5.87;4.13;;;;;;;;;;5057816;28;20554;-66
2022/04/06 12:21:22;;;;;;;7.37;2.97;;;;;;;;;;5057567;28;20185;-65
2022/04/06 12:23:49;;;;;;;6.67;3.20;;;;;;;;;;5057980;28;20209;-66
2022/04/06 12:26:15;;;;;;;5.33;2.90;;;;;;;;;;5057351;28;20531;-67
2022/04/06 12:28:44;;;;;;;4.60;2.80;;;;;;;;;;5057847;28;20182;-65
2022/04/06 12:31:10;;;;;;;6.57;3.20;;;;;;;;;;5057437;28;20626;-65
2022/04/06 12:33:42;;;;;;;5.83;3.20;;;;;;;;;;5039364;28;20553;-65
2022/04/06 12:36:08;;;;;;;3.23;2.17;;;;;;;;;;5039508;28;20234;-65
2022/04/06 12:38:35;;;;;;;3.23;2.77;;;;;;;;;;5057649;28;20578;-66
2022/04/06 12:41:07;;;;;;;4.73;2.80;;;;;;;;;;5057378;28;20175;-65
2022/04/06 12:43:36;;;;;;;6.10;3.67;;;;;;;;;;5057174;28;20194;-66
2022/04/06 12:46:02;;;;;;;6.87;3.60;;;;;;;;;;5038843;28;20179;-65
2022/04/06 12:48:28;;;;;;;5.20;2.80;;;;;;;;;;5038911;28;20285;-65
2022/04/06 12:50:55;;;;;;;5.83;3.03;;;;;;;;;;5056995;28;20699;-66
2022/04/06 12:53:21;;;;;;;3.63;2.60;;;;;;;;;;5056946;28;20210;-65
2022/04/06 12:55:47;;;;;;;6.20;2.47;;;;;;;;;;5038698;28;20262;-65
2022/04/06 12:58:13;;;;;;;5.30;2.73;;;;;;;;;;5056873;28;20186;-66
2022/04/06 13:00:39;;;;;;;6.33;3.20;;;;;;;;;;5057129;28;20185;-66
2022/04/06 13:03:05;;;;;;;6.30;2.83;;;;;;;;;;5039346;28;20301;-65
2022/04/06 13:05:32;;;;;;;4.30;3.30;;;;;;;;;;5043191;28;20182;-65
2022/04/06 13:07:57;;;;;;;5.07;2.97;;;;;;;;;;5064757;28;20189;-65
2022/04/06 13:10:28;;;;;;;4.40;3.00;;;;;;;;;;5063583;28;20573;-66
2022/04/06 13:12:54;;;;;;;6.73;3.20;;;;;;;;;;5045474;28;20208;-66
2022/04/06 13:15:20;;;;;;;5.63;3.57;;;;;;;;;;5062740;28;20571;-65
2022/04/06 13:17:50;;;;;;;4.57;3.17;;;;;;;;;;5066322;28;20186;-66
2022/04/06 13:20:17;;;;;;;5.80;2.90;;;;;;;;;;5057827;28;20183;-66
2022/04/06 13:22:43;;;;;;;4.90;3.70;;;;;;;;;;5056603;28;20218;-65
2022/04/06 13:25:11;;;;;;;6.03;4.03;;;;;;;;;;5056027;28;20240;-66
2022/04/06 13:27:37;;;;;;;7.63;5.20;;;;;;;;;;5056220;28;20178;-65
2022/04/06 13:30:04;;;;;;;4.53;3.30;;;;;;;;;;5056096;28;20259;-66
2022/04/06 13:32:30;;;;;;;2.73;2.50;;;;;;;;;;5055593;28;20205;-65
2022/04/06 13:34:56;;;;;;;4.40;3.00;;;;;;;;;;5055853;28;20174;-65
2022/04/06 13:37:22;;;;;;;8.07;2.93;;;;;;;;;;5056077;28;20174;-65
2022/04/06 13:39:49;;;;;;;3.10;2.60;;;;;;;;;;5055829;28;20231;-65
2022/04/06 13:42:16;;;;;;;5.87;2.77;;;;;;;;;;5055535;28;20186;-65
2022/04/06 13:44:43;;;;;;;4.13;2.93;;;;;;;;;;5037218;28;20205;-66
2022/04/06 13:47:09;;;;;;;4.47;3.40;;;;;;;;;;5037670;28;20182;-66
2022/04/06 13:49:35;;;;;;;6.87;3.10;;;;;;;;;;5055408;28;20206;-66
2022/04/06 13:52:03;;;;;;;4.60;2.60;;;;;;;;;;5056303;28;20265;-65
2022/04/06 13:54:29;;;;;;;4.97;3.40;;;;;;;;;;5056861;28;20214;-66
2022/04/06 13:56:55;;;;;;;5.53;2.53;;;;;;;;;;5058206;28;20185;-65
2022/04/06 13:59:23;;;;;;;5.90;3.00;;;;;;;;;;5058895;28;20186;-66
2022/04/06 14:01:49;;;;;;;5.53;2.80;;;;;;;;;;5058078;28;20172;-65
2022/04/06 14:04:16;;;;;;;4.67;3.00;;;;;;;;;;5038471;28;20232;-66
2022/04/06 14:06:43;;;;;;;6.27;3.33;;;;;;;;;;5055224;28;20210;-65
2022/04/06 14:09:09;;;;;;;5.43;3.63;;;;;;;;;;5055622;28;20202;-65
2022/04/06 14:11:36;;;;;;;4.87;2.83;;;;;;;;;;5055806;28;20221;-66
2022/04/06 14:14:02;;;;;;;4.20;3.17;;;;;;;;;;5055905;28;20240;-66
2022/04/06 14:16:28;;;;;;;2.47;2.20;;;;;;;;;;5037288;28;20178;-66
2022/04/06 14:18:56;;;;;;;4.53;2.60;;;;;;;;;;5037243;28;20186;-65
2022/04/06 14:21:23;;;;;;;7.33;2.57;;;;;;;;;;5055322;28;20194;-65
2022/04/06 14:23:49;;;;;;;6.47;5.13;;;;;;;;;;5055498;28;20273;-66
2022/04/06 14:26:15;;;;;;;4.47;2.87;;;;;;;;;;5037912;28;20698;-66
2022/04/06 14:28:41;;;;;;;4.57;2.83;;;;;;;;;;5037344;28;20266;-65
2022/04/06 14:31:10;;;;;;;5.40;3.10;;;;;;;;;;5055522;28;20202;-66
2022/04/06 14:33:36;;;;;;;3.37;2.20;;;;;;;;;;5055635;28;20209;-66
2022/04/06 14:36:06;;;;;;;4.33;3.93;;;;;;;;;;5055134;28;20178;-65
2022/04/06 14:38:32;;;;;;;5.27;3.23;;;;;;;;;;5036555;28;20179;-66
2022/04/06 14:40:59;;;;;;;5.07;3.13;;;;;;;;;;5055007;28;20680;-66
2022/04/06 14:43:26;;;;;;;4.93;3.07;;;;;;;;;;5054377;28;20202;-66
2022/04/06 14:45:52;;;;;;;2.30;2.10;;;;;;;;;;5037086;28;20192;-66